< < Back
Terminal Aerodrome Forecast


Current Version              Previous Versions:   1  2  3  4  5  6  7  8  9  

Terminal Aerodrome Forecast

747
FTUS42 KFFC 311742
TAFMCN
TAF
KMCN 311742Z 3118/0118 16005KT P6SM VCSH BKN050
      TEMPO 3118/3122 VRB10G20KT 5SM -TSRA BKN050CB
     FM010100 00000KT P6SM SCT060
     FM010300 03003KT P6SM FEW250
     FM011500 03004KT P6SM FEW040=

Latest METAR

267
SAUS80 KWBC 312300 RRB
MTRMCN
METAR KMCN 312253Z 26003KT 10SM TS FEW050 SCT090 BKN110 24/22 A2991 RMK
AO2 TSB28RAB35E46 SLP126 P0001 T02390222


USA.gov is the U.S. government's official web portal to all federal, state and local government web resources and services.